»·PEaware :: N2070M KRNM-KSMO

N2070M :: KRNM-KSMO

FLIGHT INFORMATION

Flight Status: Arrived
Operator: Privately registered:
United States
More flights under this callsign
Pilot: Andrew M. (139)
Aircraft: CESSNA 208 CARAVAN
(C208)
More flights by this aircraft type
Origin: KRNM Ramona
United States
Destination: KSMO Santa Monica Mun
United States
More flights between these airports :: More routes between these airports
Route: +ROBNN V208 OCN V23 DANAH V363 BAYJY V186 DARTS
File this flight plan on PilotEdge
Remarks:
Altitude:
(Current/Filed)
8,000ft
Speed:
(Current/Filed)
200kts
Departed: 21-Oct-20 06:02 PM
Arrived: 21-Oct-20 06:50 PM
Distance/Time
Traveled:
6739nm/0:48
Distance/Time
To Go:
Arrived

Flight Plot

Page will automatically refresh every two minutes.

Flight plan parsing failed; only flown route is shown


Map Options




Map Legend


Flown Route
Filed Route
Departure Airport
Arrival Airport
Navaid (VOR, NDB)
Fix

Horizontal Profiles

Position Reports

Time Latitude Longitude Heading Altitude Ground
Speed
21-Oct-20 17:38 33.039703 -116.910022 99 1401ft 0kts
21-Oct-20 17:39 33.039703 -116.910022 99 1401ft 0kts
21-Oct-20 17:40 33.039703 -116.910022 99 1401ft 0kts
21-Oct-20 17:41 33.039703 -116.910022 99 1401ft 0kts
21-Oct-20 17:42 33.039703 -116.910022 99 1401ft 0kts
21-Oct-20 17:43 33.039703 -116.910022 99 1401ft 0kts
21-Oct-20 17:44 33.039703 -116.910022 99 1401ft 0kts
21-Oct-20 17:45 33.039703 -116.910022 99 1401ft 0kts
21-Oct-20 17:46 33.039703 -116.910022 99 1401ft 0kts
21-Oct-20 17:48 33.039703 -116.910022 99 1401ft 0kts
21-Oct-20 17:49 33.039703 -116.910022 99 1401ft 0kts
21-Oct-20 17:50 33.039703 -116.910022 99 1401ft 0kts
21-Oct-20 17:51 33.039703 -116.910022 99 1401ft 0kts
21-Oct-20 17:52 33.039703 -116.910022 99 1401ft 0kts
21-Oct-20 17:53 33.039703 -116.910022 99 1401ft 0kts
21-Oct-20 17:54 33.039703 -116.910022 99 1401ft 0kts
21-Oct-20 17:55 33.039703 -116.910022 99 1401ft 0kts
21-Oct-20 17:56 33.039546 -116.909969 222 1401ft 0kts
21-Oct-20 17:57 33.039546 -116.909969 222 1401ft 0kts
21-Oct-20 17:58 33.039546 -116.909969 222 1401ft 0kts
21-Oct-20 17:59 33.039524 -116.909998 230 1401ft 2kts
21-Oct-20 18:00 33.038791 -116.908013 100 1402ft 13kts
21-Oct-20 18:01 33.038302 -116.907273 191 1403ft 5kts
21-Oct-20 18:02 33.041153 -116.927040 282 1649ft 113kts
21-Oct-20 18:03 33.048709 -116.966571 283 2688ft 126kts
21-Oct-20 18:03 33.056189 -117.000182 284 3614ft 128kts
21-Oct-20 18:05 33.066560 -117.048822 293 4847ft 135kts
21-Oct-20 18:05 33.088503 -117.074951 333 5675ft 138kts
21-Oct-20 18:07 33.134362 -117.094854 346 5999ft 161kts
21-Oct-20 18:07 33.171494 -117.103176 352 5968ft 164kts
21-Oct-20 18:08 33.207363 -117.130292 287 5969ft 163kts
21-Oct-20 18:09 33.211989 -117.184026 276 5974ft 162kts
21-Oct-20 18:10 33.216592 -117.237682 272 5939ft 163kts
21-Oct-20 18:11 33.222673 -117.290965 279 5990ft 162kts
21-Oct-20 18:12 33.231359 -117.343783 282 6018ft 162kts
21-Oct-20 18:13 33.240531 -117.396887 278 6050ft 162kts
21-Oct-20 18:14 33.261317 -117.441317 314 6027ft 164kts
21-Oct-20 18:15 33.294052 -117.480017 315 6001ft 165kts
21-Oct-20 18:16 33.326899 -117.518180 315 6001ft 165kts
21-Oct-20 18:17 33.359771 -117.556568 315 6000ft 165kts
21-Oct-20 18:18 33.392609 -117.594900 315 5999ft 164kts
21-Oct-20 18:19 33.425360 -117.633210 315 5999ft 164kts
21-Oct-20 18:20 33.458126 -117.671570 315 6000ft 164kts
21-Oct-20 18:21 33.496051 -117.699666 347 6004ft 164kts
21-Oct-20 18:22 33.541355 -117.708785 353 6000ft 164kts
21-Oct-20 18:23 33.586706 -117.716006 352 5999ft 164kts
21-Oct-20 18:24 33.632079 -117.723721 352 5999ft 164kts
21-Oct-20 18:25 33.677164 -117.732871 343 5997ft 164kts
21-Oct-20 18:26 33.719908 -117.751393 338 5996ft 164kts
21-Oct-20 18:27 33.762606 -117.770114 349 5998ft 164kts
21-Oct-20 18:28 33.807829 -117.777289 355 5996ft 163kts
21-Oct-20 18:29 33.852997 -117.782011 356 5997ft 163kts
21-Oct-20 18:30 33.898239 -117.783435 0 5997ft 162kts
21-Oct-20 18:31 33.943477 -117.784193 359 5997ft 162kts
21-Oct-20 18:32 33.988430 -117.785207 359 5996ft 161kts
21-Oct-20 18:33 34.017578 -117.819313 293 5994ft 162kts
21-Oct-20 18:34 34.033577 -117.869941 289 6002ft 162kts
21-Oct-20 18:35 34.048951 -117.920177 290 6001ft 162kts
21-Oct-20 18:36 34.064671 -117.971106 290 6004ft 162kts
21-Oct-20 18:37 34.079370 -118.018982 290 6004ft 162kts
21-Oct-20 18:38 34.092659 -118.067009 287 6005ft 162kts
21-Oct-20 18:39 34.105832 -118.119238 287 5570ft 169kts
21-Oct-20 18:40 34.119552 -118.171399 291 5045ft 163kts
21-Oct-20 18:41 34.137353 -118.222083 295 4456ft 163kts
21-Oct-20 18:42 34.156751 -118.268892 287 4420ft 151kts
21-Oct-20 18:43 34.133457 -118.308832 217 4291ft 157kts
21-Oct-20 18:44 34.100236 -118.342141 224 3719ft 146kts
21-Oct-20 18:45 34.075552 -118.372770 228 2806ft 113kts
21-Oct-20 18:46 34.054843 -118.401011 228 1809ft 104kts
21-Oct-20 18:47 34.038292 -118.423391 231 1214ft 89kts
21-Oct-20 18:48 34.021507 -118.444631 225 255ft 82kts
21-Oct-20 18:49 34.013421 -118.454654 314 151ft 8kts
21-Oct-20 18:50 34.013710 -118.454848 7 151ft 5kts
21-Oct-20 18:51 34.016195 -118.452783 340 156ft 0kts
21-Oct-20 18:52 0.000408 0.013975 360 7ft 0kts

Navigation Log

Ident Type
Flight plan parsing failed, navigation log unavailable